createdAt,value
2022-11-12T00:00:51.487Z,13.87
2022-11-12T00:03:12.077Z,13.60
2022-11-12T00:05:33.049Z,17.53
2022-11-12T00:07:53.867Z,14.47
2022-11-12T00:10:14.987Z,12.40
2022-11-12T00:12:35.700Z,12.97
2022-11-12T00:14:56.616Z,13.20
2022-11-12T00:17:17.667Z,17.53
2022-11-12T00:19:38.361Z,13.70
2022-11-12T00:21:59.058Z,15.73
2022-11-12T00:24:19.766Z,13.63
2022-11-12T00:26:40.581Z,13.93
2022-11-12T00:29:01.533Z,13.40
2022-11-12T00:31:22.352Z,13.53
2022-11-12T00:33:43.522Z,12.73
2022-11-12T00:36:04.636Z,13.13
2022-11-12T00:38:25.762Z,12.83
2022-11-12T00:40:46.890Z,16.30
2022-11-12T00:43:07.764Z,12.30
2022-11-12T00:45:28.525Z,15.40
2022-11-12T00:47:49.317Z,11.80
2022-11-12T00:50:10.339Z,12.40
2022-11-12T00:52:30.868Z,10.87
2022-11-12T00:54:51.694Z,14.57
2022-11-12T00:57:16.454Z,11.17
2022-11-12T00:59:36.795Z,10.90
2022-11-12T01:01:57.457Z,12.47
2022-11-12T01:04:18.344Z,13.40
2022-11-12T01:06:40.912Z,15.40
2022-11-12T01:09:01.684Z,15.10
2022-11-12T01:11:28.146Z,10.60
2022-11-12T01:13:55.256Z,16.30
2022-11-12T01:16:20.887Z,9.33
2022-11-12T01:18:42.051Z,15.37
2022-11-12T01:21:04.499Z,14.77
2022-11-12T01:23:25.273Z,12.00
2022-11-12T01:25:46.079Z,11.83
2022-11-12T01:28:07.008Z,12.50
2022-11-12T01:30:27.916Z,16.20
2022-11-12T01:32:48.881Z,15.30
2022-11-12T01:35:09.823Z,11.50
2022-11-12T01:37:30.580Z,11.53
2022-11-12T01:39:51.073Z,11.00
2022-11-12T01:42:12.398Z,12.17
2022-11-12T01:44:35.356Z,12.53
2022-11-12T01:47:17.552Z,14.03
2022-11-12T01:50:14.013Z,15.70
2022-11-12T01:52:39.158Z,17.20
2022-11-12T01:55:07.985Z,24.70
2022-11-12T01:57:34.764Z,19.07
2022-11-12T02:00:01.278Z,18.23
2022-11-12T02:02:22.136Z,16.63
2022-11-12T02:04:43.028Z,16.60
2022-11-12T02:07:03.828Z,16.10
2022-11-12T02:09:24.576Z,26.40
2022-11-12T02:11:45.477Z,29.00
2022-11-12T02:14:06.405Z,23.20
2022-11-12T02:16:36.026Z,23.03
2022-11-12T02:18:56.751Z,26.77
2022-11-12T02:21:24.802Z,17.47
2022-11-12T02:23:45.414Z,18.50
2022-11-12T02:26:06.106Z,17.17
2022-11-12T02:28:27.286Z,17.07
2022-11-12T02:30:49.392Z,25.50
2022-11-12T02:33:10.232Z,15.00
2022-11-12T02:35:31.355Z,13.23
2022-11-12T02:37:52.004Z,15.70
2022-11-12T02:40:13.028Z,14.17
2022-11-12T02:42:33.511Z,10.40
2022-11-12T02:44:54.338Z,12.43
2022-11-12T02:47:15.084Z,16.60
2022-11-12T02:49:35.969Z,12.33
2022-11-12T02:51:56.843Z,13.37
2022-11-12T02:54:17.522Z,11.80
2022-11-12T02:56:38.295Z,12.80
2022-11-12T02:58:59.216Z,13.40
2022-11-12T03:01:20.254Z,15.03
2022-11-12T03:03:41.086Z,11.13
2022-11-12T03:06:01.976Z,10.57
2022-11-12T03:08:23.225Z,11.70
2022-11-12T03:10:43.874Z,14.57
2022-11-12T03:13:05.271Z,12.93
2022-11-12T03:15:26.401Z,13.10
2022-11-12T03:17:47.261Z,14.50
2022-11-12T03:20:07.984Z,14.50
2022-11-12T03:22:28.500Z,16.87
2022-11-12T03:24:49.493Z,10.37
2022-11-12T03:27:10.256Z,13.37
2022-11-12T03:29:31.224Z,14.50
2022-11-12T03:31:52.052Z,14.00
2022-11-12T03:34:12.882Z,12.40
2022-11-12T03:36:33.769Z,12.50
2022-11-12T03:38:54.413Z,20.57
2022-11-12T03:41:15.304Z,11.57
2022-11-12T03:43:35.972Z,16.50
2022-11-12T03:45:56.979Z,12.03
2022-11-12T03:48:17.868Z,10.93
2022-11-12T03:50:38.672Z,13.80
2022-11-12T03:53:00.122Z,11.70
2022-11-12T03:55:22.417Z,11.77
2022-11-12T03:57:43.218Z,11.30
2022-11-12T04:00:05.924Z,15.37
2022-11-12T04:02:26.861Z,12.40
2022-11-12T04:05:06.035Z,18.00
2022-11-12T04:07:45.126Z,14.67
2022-11-12T04:10:06.246Z,10.77
2022-11-12T04:12:45.675Z,17.33
2022-11-12T04:15:06.793Z,10.80
2022-11-12T04:17:46.031Z,10.50
2022-11-12T04:20:25.877Z,13.63
2022-11-12T04:22:46.658Z,13.80
2022-11-12T04:25:25.794Z,12.00
2022-11-12T04:27:46.583Z,13.00
2022-11-12T04:30:16.732Z,10.10
2022-11-12T04:32:39.581Z,11.00
2022-11-12T04:35:00.765Z,11.87
2022-11-12T04:37:23.726Z,11.47
2022-11-12T04:39:44.424Z,14.70
2022-11-12T04:42:23.562Z,12.70
2022-11-12T04:45:16.353Z,12.33
2022-11-12T04:47:41.441Z,10.73
2022-11-12T04:50:11.305Z,12.43
2022-11-12T04:52:32.746Z,15.73
2022-11-12T04:54:53.912Z,13.60
2022-11-12T04:57:14.813Z,15.13
2022-11-12T04:59:35.630Z,13.63
2022-11-12T05:01:56.659Z,15.27
2022-11-12T05:04:17.516Z,10.50
2022-11-12T05:06:54.052Z,16.10
2022-11-12T05:09:15.182Z,9.97
2022-11-12T05:11:36.063Z,13.87
2022-11-12T05:13:56.959Z,11.40
2022-11-12T05:16:17.722Z,18.70
2022-11-12T05:18:38.492Z,14.83
2022-11-12T05:21:19.223Z,14.70
2022-11-12T05:23:40.132Z,13.13
2022-11-12T05:26:00.973Z,17.73
2022-11-12T05:28:21.853Z,17.93
2022-11-12T05:30:42.882Z,12.53
2022-11-12T05:33:03.511Z,16.17
2022-11-12T05:35:24.229Z,16.80
2022-11-12T05:37:44.898Z,21.30
2022-11-12T05:40:06.287Z,13.23
2022-11-12T05:42:26.875Z,22.97
2022-11-12T05:44:47.854Z,18.60
2022-11-12T05:47:08.353Z,16.17
2022-11-12T05:49:29.082Z,13.60
2022-11-12T05:51:49.672Z,16.93
2022-11-12T05:54:10.203Z,17.20
2022-11-12T05:56:30.863Z,17.63
2022-11-12T05:58:51.495Z,13.07
2022-11-12T06:01:12.155Z,13.20
2022-11-12T06:03:32.881Z,12.30
2022-11-12T06:05:53.526Z,23.50
2022-11-12T06:08:14.317Z,18.27
2022-11-12T06:10:35.228Z,16.53
2022-11-12T06:12:56.039Z,16.63
2022-11-12T06:15:16.545Z,17.70
2022-11-12T06:17:37.331Z,13.90
2022-11-12T06:19:58.073Z,16.30
2022-11-12T06:22:18.437Z,16.73
2022-11-12T06:24:39.318Z,21.10
2022-11-12T06:27:00.096Z,14.20
2022-11-12T06:29:20.819Z,19.23
2022-11-12T06:31:41.725Z,17.17
2022-11-12T06:34:03.316Z,18.23
2022-11-12T06:36:24.576Z,16.20
2022-11-12T06:38:45.568Z,15.43
2022-11-12T06:41:07.773Z,15.87
2022-11-12T06:43:30.104Z,16.50
2022-11-12T06:45:50.930Z,15.57
2022-11-12T06:48:11.437Z,19.53
2022-11-12T06:50:32.361Z,15.57
2022-11-12T06:52:58.346Z,13.23
2022-11-12T06:55:18.862Z,19.60
2022-11-12T06:57:39.579Z,14.50
2022-11-12T07:00:00.387Z,20.03
2022-11-12T07:02:20.980Z,17.30
2022-11-12T07:04:41.706Z,13.90
2022-11-12T07:07:05.650Z,16.77
2022-11-12T07:09:28.712Z,17.17
2022-11-12T07:11:49.631Z,19.37
2022-11-12T07:14:10.413Z,15.27
2022-11-12T07:16:31.274Z,15.70
2022-11-12T07:18:52.207Z,16.13
2022-11-12T07:21:15.095Z,16.87
2022-11-12T07:23:36.698Z,20.27
2022-11-12T07:26:02.056Z,30.13
2022-11-12T07:28:22.615Z,26.30
2022-11-12T07:30:43.540Z,23.03
2022-11-12T07:33:04.348Z,23.33
2022-11-12T07:35:25.125Z,29.03
2022-11-12T07:37:45.803Z,25.60
2022-11-12T07:40:07.186Z,24.00
2022-11-12T07:42:27.932Z,23.90
2022-11-12T07:44:48.731Z,20.13
2022-11-12T07:47:09.495Z,21.13
2022-11-12T07:49:30.366Z,15.70
2022-11-12T07:51:51.073Z,14.50
2022-11-12T07:54:11.923Z,13.07
2022-11-12T07:56:32.703Z,13.47
2022-11-12T07:58:53.435Z,11.63
2022-11-12T08:01:33.590Z,11.20
2022-11-12T08:03:54.616Z,11.97
2022-11-12T08:06:15.329Z,10.47
2022-11-12T08:08:36.149Z,8.80
2022-11-12T08:10:57.882Z,10.03
2022-11-12T08:13:18.857Z,8.33
2022-11-12T08:15:39.704Z,10.17
2022-11-12T08:18:00.342Z,12.40
2022-11-12T08:20:20.965Z,9.13
2022-11-12T08:22:47.955Z,12.60
2022-11-12T08:25:10.170Z,7.73
2022-11-12T08:27:30.983Z,6.30
2022-11-12T08:29:51.664Z,8.50
2022-11-12T08:32:12.417Z,10.23
2022-11-12T08:34:33.221Z,8.10
2022-11-12T08:36:54.020Z,7.40
2022-11-12T08:39:14.807Z,10.17
2022-11-12T08:41:35.542Z,9.03
2022-11-12T08:43:57.204Z,8.30
2022-11-12T08:46:17.786Z,7.87
2022-11-12T08:48:40.129Z,10.23
2022-11-12T08:51:02.474Z,6.40
2022-11-12T08:53:24.501Z,14.80
2022-11-12T08:55:45.040Z,7.63
2022-11-12T08:58:06.732Z,12.40
2022-11-12T09:00:30.885Z,10.30
2022-11-12T09:02:51.359Z,11.10
2022-11-12T09:05:12.276Z,13.13
2022-11-12T09:07:49.311Z,12.67
2022-11-12T09:10:11.152Z,9.07
2022-11-12T09:12:32.088Z,14.50
2022-11-12T09:14:56.167Z,10.20
2022-11-12T09:17:16.945Z,11.93
2022-11-12T09:19:42.668Z,9.83
2022-11-12T09:22:03.761Z,11.90
2022-11-12T09:24:24.634Z,11.83
2022-11-12T09:26:45.669Z,11.07
2022-11-12T09:29:06.474Z,11.70
2022-11-12T09:31:27.417Z,10.50
2022-11-12T09:33:48.308Z,10.43
2022-11-12T09:36:09.263Z,12.47
2022-11-12T09:38:30.621Z,13.00
2022-11-12T09:40:51.460Z,15.80
2022-11-12T09:43:23.336Z,57.20
2022-11-12T09:45:54.945Z,11.30
2022-11-12T09:48:34.374Z,12.63
2022-11-12T09:50:58.717Z,11.37
2022-11-12T09:53:25.599Z,20.70
2022-11-12T09:55:49.567Z,12.80
2022-11-12T09:58:14.743Z,11.60
2022-11-12T10:00:35.448Z,22.13
2022-11-12T10:03:02.231Z,14.30
2022-11-12T10:05:42.925Z,17.03
2022-11-12T10:08:11.629Z,16.93
2022-11-12T10:10:44.990Z,18.13
2022-11-12T10:13:25.508Z,16.70
2022-11-12T10:16:18.120Z,15.90
2022-11-12T10:19:08.881Z,13.10
2022-11-12T10:21:48.197Z,11.40
2022-11-12T10:24:11.058Z,11.23
2022-11-12T10:26:34.163Z,11.10
2022-11-12T10:29:14.857Z,11.33
2022-11-12T10:31:35.378Z,11.60
2022-11-12T10:34:21.585Z,9.87
2022-11-12T10:37:25.392Z,11.17
2022-11-12T10:39:47.665Z,9.10
2022-11-12T10:42:12.061Z,12.40
2022-11-12T10:44:32.729Z,11.17
2022-11-12T10:47:23.153Z,9.27
2022-11-12T10:49:43.922Z,10.93
2022-11-12T10:52:04.668Z,14.30
2022-11-12T10:54:37.266Z,14.40
2022-11-12T10:57:06.080Z,11.80
2022-11-12T10:59:26.564Z,12.47
2022-11-12T11:01:55.249Z,11.10
2022-11-12T11:04:19.531Z,9.17
2022-11-12T11:06:40.174Z,10.43
2022-11-12T11:09:12.851Z,9.23
2022-11-12T11:11:34.308Z,14.93
2022-11-12T11:13:56.633Z,11.33
2022-11-12T11:16:20.096Z,11.60
2022-11-12T11:18:42.866Z,11.63
2022-11-12T11:21:13.952Z,12.53
2022-11-12T11:23:55.008Z,10.37
2022-11-12T11:26:40.256Z,10.90
2022-11-12T11:29:18.153Z,11.17
2022-11-12T11:31:55.864Z,13.07
2022-11-12T11:34:26.924Z,16.97
2022-11-12T11:36:54.205Z,19.80
2022-11-12T11:39:21.105Z,18.60
2022-11-12T11:41:54.016Z,17.40
2022-11-12T11:45:12.313Z,15.93
2022-11-12T11:47:59.400Z,18.13
2022-11-12T11:51:07.242Z,13.60
2022-11-12T11:53:33.875Z,12.57
2022-11-12T11:56:04.220Z,13.00
2022-11-12T11:58:50.728Z,11.30
2022-11-12T12:01:23.694Z,10.63
2022-11-12T12:03:44.065Z,13.10
2022-11-12T12:06:26.994Z,9.23
2022-11-12T12:08:47.431Z,8.87
2022-11-12T12:11:21.472Z,7.93
2022-11-12T12:13:59.593Z,13.50
2022-11-12T12:16:48.189Z,11.23
2022-11-12T12:19:37.007Z,10.30
2022-11-12T12:21:58.807Z,9.40
2022-11-12T12:24:27.676Z,14.43
2022-11-12T12:26:50.929Z,11.13
2022-11-12T12:29:23.418Z,13.37
2022-11-12T12:32:10.881Z,10.63
2022-11-12T12:34:40.352Z,13.07
2022-11-12T12:37:22.726Z,10.40
2022-11-12T12:39:54.138Z,12.27
2022-11-12T12:42:26.639Z,14.17
2022-11-12T12:45:03.328Z,9.37
2022-11-12T12:47:23.850Z,11.43
2022-11-12T12:49:46.384Z,12.50
2022-11-12T12:52:06.751Z,7.97
2022-11-12T12:54:39.417Z,7.60
2022-11-12T12:56:59.672Z,13.37
2022-11-12T12:59:22.988Z,10.40
2022-11-12T13:01:43.259Z,25.23
2022-11-12T13:04:08.609Z,9.30
2022-11-12T13:06:34.968Z,10.97
2022-11-12T13:08:59.551Z,13.63
2022-11-12T13:11:58.684Z,10.23
2022-11-12T13:14:31.384Z,10.70
2022-11-12T13:16:52.072Z,8.00
2022-11-12T13:19:32.664Z,10.03
2022-11-12T13:22:19.188Z,7.53
2022-11-12T13:25:01.360Z,11.63
2022-11-12T13:27:46.777Z,9.30
2022-11-12T13:30:08.958Z,8.43
2022-11-12T13:32:34.084Z,7.33
2022-11-12T13:35:28.087Z,8.40
2022-11-12T13:37:51.999Z,10.37
2022-11-12T13:40:20.411Z,10.40
2022-11-12T13:42:49.920Z,9.60
2022-11-12T13:45:10.725Z,11.50
2022-11-12T13:47:32.228Z,11.00
2022-11-12T13:49:53.002Z,8.03
2022-11-12T13:52:15.230Z,8.87
2022-11-12T13:54:37.717Z,13.30
2022-11-12T13:57:14.534Z,12.80
2022-11-12T13:59:34.988Z,10.20
2022-11-12T14:01:55.845Z,17.73
2022-11-12T14:04:22.377Z,9.23
2022-11-12T14:06:44.732Z,12.77
2022-11-12T14:09:14.594Z,10.60
2022-11-12T14:12:06.726Z,13.03
2022-11-12T14:14:53.401Z,11.67
2022-11-12T14:17:31.731Z,12.03
2022-11-12T14:20:15.613Z,11.20
2022-11-12T14:22:41.701Z,8.33
2022-11-12T14:25:03.164Z,9.07
2022-11-12T14:27:33.560Z,10.30
2022-11-12T14:30:17.897Z,7.30
2022-11-12T14:32:40.680Z,8.40
2022-11-12T14:35:00.999Z,10.00
2022-11-12T14:37:39.897Z,11.47
2022-11-12T14:40:03.855Z,11.83
2022-11-12T14:42:24.460Z,7.80
2022-11-12T14:44:45.180Z,7.00
2022-11-12T14:47:05.725Z,8.87
2022-11-12T14:49:43.594Z,13.80
2022-11-12T14:52:20.873Z,8.03
2022-11-12T14:54:47.531Z,9.87
2022-11-12T14:57:16.000Z,11.07
2022-11-12T14:59:36.663Z,8.40
2022-11-12T15:02:31.669Z,9.00
2022-11-12T15:05:23.683Z,10.60
2022-11-12T15:07:50.597Z,9.10
2022-11-12T15:10:30.957Z,8.53
2022-11-12T15:12:51.389Z,9.37
2022-11-12T15:15:23.592Z,11.87
2022-11-12T15:17:44.072Z,11.50
2022-11-12T15:20:11.956Z,9.67
2022-11-12T15:22:33.422Z,12.03
2022-11-12T15:24:54.351Z,10.03
2022-11-12T15:27:36.121Z,9.90
2022-11-12T15:30:16.147Z,10.43
2022-11-12T15:32:36.613Z,14.67
2022-11-12T15:34:57.266Z,20.30
2022-11-12T15:37:17.950Z,23.50
2022-11-12T15:39:53.672Z,18.33
2022-11-12T15:42:26.849Z,25.50
2022-11-12T15:44:47.682Z,25.87
2022-11-12T15:47:10.897Z,29.80
2022-11-12T15:49:31.465Z,35.50
2022-11-12T15:51:51.930Z,28.73
2022-11-12T15:54:12.574Z,39.23
2022-11-12T15:56:33.609Z,37.20
2022-11-12T15:58:54.300Z,88.17
2022-11-12T16:01:15.085Z,72.60
2022-11-12T16:03:35.718Z,50.30
2022-11-12T16:05:56.279Z,58.30
2022-11-12T16:08:17.070Z,39.30
2022-11-12T16:10:39.053Z,48.70
2022-11-12T16:13:01.015Z,51.97
2022-11-12T16:15:25.490Z,41.13
2022-11-12T16:17:46.850Z,33.20
2022-11-12T16:20:22.189Z,41.03
2022-11-12T16:22:43.271Z,41.13
2022-11-12T16:25:03.978Z,35.43
2022-11-12T16:27:24.362Z,34.73
2022-11-12T16:29:57.211Z,37.47
2022-11-12T16:32:17.965Z,36.60
2022-11-12T16:34:38.634Z,37.43
2022-11-12T16:36:59.365Z,46.20
2022-11-12T16:39:19.763Z,49.27
2022-11-12T16:41:40.515Z,41.60
2022-11-12T16:44:01.159Z,34.43
2022-11-12T16:46:28.167Z,38.40
2022-11-12T16:48:48.768Z,36.00
2022-11-12T16:51:17.884Z,35.93
2022-11-12T16:53:38.268Z,38.90
2022-11-12T16:55:59.059Z,45.37
2022-11-12T16:58:19.769Z,32.83
2022-11-12T17:00:42.076Z,46.53
2022-11-12T17:03:02.935Z,45.97
2022-11-12T17:05:26.210Z,51.70
2022-11-12T17:07:47.436Z,45.60
2022-11-12T17:10:08.541Z,46.37
2022-11-12T17:12:29.184Z,51.03
2022-11-12T17:14:49.779Z,53.57
2022-11-12T17:17:10.475Z,49.87
2022-11-12T17:19:31.122Z,46.97
2022-11-12T17:21:51.737Z,50.90
2022-11-12T17:24:12.356Z,49.63
2022-11-12T17:26:32.924Z,43.43
2022-11-12T17:29:00.099Z,46.70
2022-11-12T17:31:23.483Z,40.50
2022-11-12T17:33:46.313Z,32.90
2022-11-12T17:36:09.118Z,35.47
2022-11-12T17:38:30.376Z,38.30
2022-11-12T17:40:55.289Z,40.80
2022-11-12T17:43:15.624Z,33.27
2022-11-12T17:45:36.199Z,37.67
2022-11-12T17:47:56.753Z,34.57
2022-11-12T17:50:17.405Z,33.47
2022-11-12T17:52:37.961Z,33.80
2022-11-12T17:54:58.666Z,38.77
2022-11-12T17:57:19.352Z,40.10
2022-11-12T17:59:39.840Z,32.60
2022-11-12T18:02:00.421Z,38.07
2022-11-12T18:04:23.483Z,37.43
2022-11-12T18:06:44.572Z,42.67
2022-11-12T18:09:14.542Z,40.53
2022-11-12T18:11:43.935Z,35.80
2022-11-12T18:14:08.644Z,41.00
2022-11-12T18:16:29.529Z,44.17
2022-11-12T18:18:50.576Z,44.13
2022-11-12T18:21:11.048Z,46.97
2022-11-12T18:23:31.782Z,57.97
2022-11-12T18:25:52.341Z,49.13
2022-11-12T18:28:13.293Z,55.87
2022-11-12T18:30:34.808Z,59.20
2022-11-12T18:32:55.522Z,60.13
2022-11-12T18:35:16.368Z,52.30
2022-11-12T18:37:37.032Z,54.87
2022-11-12T18:39:57.629Z,52.07
2022-11-12T18:42:18.250Z,54.37
2022-11-12T18:44:38.833Z,49.33
2022-11-12T18:46:59.480Z,47.27
2022-11-12T18:49:20.049Z,49.57
2022-11-12T18:51:40.688Z,48.37
2022-11-12T18:54:01.072Z,46.93
2022-11-12T18:56:22.212Z,51.90
2022-11-12T18:58:43.158Z,47.17
2022-11-12T19:01:12.233Z,49.40
2022-11-12T19:03:33.121Z,47.67
2022-11-12T19:06:01.041Z,48.87
2022-11-12T19:08:21.298Z,46.53
2022-11-12T19:10:41.879Z,40.00
2022-11-12T19:13:04.122Z,42.67
2022-11-12T19:15:26.994Z,46.57
2022-11-12T19:17:47.778Z,44.00
2022-11-12T19:20:09.025Z,45.90
2022-11-12T19:22:29.534Z,40.93
2022-11-12T19:24:50.503Z,48.57
2022-11-12T19:27:11.104Z,39.80
2022-11-12T19:29:32.307Z,45.10
2022-11-12T19:31:53.064Z,46.23
2022-11-12T19:34:13.637Z,43.70
2022-11-12T19:36:34.392Z,36.00
2022-11-12T19:39:00.106Z,36.07
2022-11-12T19:41:20.771Z,48.53
2022-11-12T19:43:41.705Z,41.27
2022-11-12T19:46:02.362Z,46.27
2022-11-12T19:48:22.801Z,44.33
2022-11-12T19:50:43.470Z,42.17
2022-11-12T19:53:04.188Z,39.57
2022-11-12T19:55:25.757Z,41.60
2022-11-12T19:57:46.577Z,41.93
2022-11-12T20:00:07.938Z,45.57
2022-11-12T20:02:29.015Z,40.57
2022-11-12T20:04:49.445Z,42.73
2022-11-12T20:07:10.128Z,37.33
2022-11-12T20:09:31.911Z,36.40
2022-11-12T20:11:52.342Z,40.23
2022-11-12T20:14:12.973Z,36.93
2022-11-12T20:16:33.819Z,35.43
2022-11-12T20:18:55.744Z,45.03
2022-11-12T20:21:16.581Z,42.43
2022-11-12T20:23:38.775Z,40.10
2022-11-12T20:26:06.213Z,43.73
2022-11-12T20:28:27.135Z,39.10
2022-11-12T20:30:47.820Z,52.00
2022-11-12T20:33:08.700Z,59.57
2022-11-12T20:35:29.152Z,48.00
2022-11-12T20:37:50.112Z,39.70
2022-11-12T20:40:10.854Z,34.90
2022-11-12T20:42:31.356Z,38.03
2022-11-12T20:44:52.169Z,38.53
2022-11-12T20:47:13.211Z,34.47
2022-11-12T20:49:34.045Z,33.37
2022-11-12T20:51:54.579Z,40.47
2022-11-12T20:54:15.677Z,35.70
2022-11-12T20:56:36.528Z,35.13
2022-11-12T20:58:58.211Z,30.57
2022-11-12T21:01:21.190Z,31.10
2022-11-12T21:03:43.293Z,36.73
2022-11-12T21:06:06.093Z,30.30
2022-11-12T21:08:28.376Z,27.93
2022-11-12T21:10:50.325Z,26.00
2022-11-12T21:13:11.189Z,35.33
2022-11-12T21:15:31.981Z,30.83
2022-11-12T21:17:52.768Z,27.93
2022-11-12T21:20:13.598Z,27.20
2022-11-12T21:22:34.772Z,32.90
2022-11-12T21:24:55.476Z,27.90
2022-11-12T21:27:16.217Z,28.63
2022-11-12T21:29:37.202Z,29.70
2022-11-12T21:31:57.895Z,29.07
2022-11-12T21:34:18.646Z,34.43
2022-11-12T21:36:39.517Z,30.23
2022-11-12T21:39:00.397Z,38.20
2022-11-12T21:41:23.629Z,38.03
2022-11-12T21:43:45.584Z,34.87
2022-11-12T21:46:17.031Z,35.70
2022-11-12T21:48:37.585Z,34.93
2022-11-12T21:51:03.480Z,34.03
2022-11-12T21:53:24.808Z,36.00
2022-11-12T21:55:45.641Z,38.53
2022-11-12T21:58:06.737Z,31.83
2022-11-12T22:00:41.637Z,35.70
2022-11-12T22:03:03.358Z,37.27
2022-11-12T22:05:24.379Z,33.40
2022-11-12T22:07:44.820Z,35.40
2022-11-12T22:10:06.644Z,36.40
2022-11-12T22:12:26.999Z,30.43
2022-11-12T22:14:47.720Z,33.40
2022-11-12T22:17:08.485Z,33.53
2022-11-12T22:19:29.182Z,32.67
2022-11-12T22:21:49.947Z,42.70
2022-11-12T22:24:11.893Z,33.70
2022-11-12T22:26:32.341Z,33.53
2022-11-12T22:28:54.072Z,33.33
2022-11-12T22:31:23.069Z,35.77
2022-11-12T22:33:43.629Z,36.10
2022-11-12T22:36:09.567Z,37.50
2022-11-12T22:38:37.661Z,31.07
2022-11-12T22:41:07.001Z,30.00
2022-11-12T22:43:27.774Z,31.43
2022-11-12T22:45:48.396Z,39.77
2022-11-12T22:48:08.870Z,35.47
2022-11-12T22:50:29.791Z,37.20
2022-11-12T22:52:50.647Z,35.23
2022-11-12T22:55:11.661Z,37.97
2022-11-12T22:57:32.476Z,35.63
2022-11-12T22:59:53.121Z,34.50
2022-11-12T23:02:13.975Z,27.70
2022-11-12T23:04:35.357Z,31.23
2022-11-12T23:06:55.837Z,30.40
2022-11-12T23:09:17.258Z,30.37
2022-11-12T23:11:38.417Z,32.43
2022-11-12T23:13:59.236Z,29.70
2022-11-12T23:16:22.661Z,27.50
2022-11-12T23:18:43.434Z,28.37
2022-11-12T23:21:15.342Z,29.10
2022-11-12T23:23:36.191Z,31.50
2022-11-12T23:26:04.830Z,32.40
2022-11-12T23:28:25.535Z,33.40
2022-11-12T23:30:50.577Z,32.80
2022-11-12T23:33:11.291Z,28.07
2022-11-12T23:35:32.135Z,27.60
2022-11-12T23:37:53.460Z,25.30
2022-11-12T23:40:14.037Z,42.83
2022-11-12T23:42:35.420Z,28.80
2022-11-12T23:44:55.962Z,31.20
2022-11-12T23:47:16.736Z,28.37
2022-11-12T23:49:37.371Z,32.10
2022-11-12T23:51:58.412Z,27.63
2022-11-12T23:54:18.955Z,26.77
2022-11-12T23:56:39.734Z,30.17
2022-11-12T23:59:00.688Z,26.37
